sensor_id;sensor_type;location;lat;lon;timestamp;temperature;humidity
26270;DHT22;15937;50.612;6.656;2022-08-01T00:00:35;20.60;99.90
26270;DHT22;15937;50.612;6.656;2022-08-01T00:04:37;20.50;99.90
26270;DHT22;15937;50.612;6.656;2022-08-01T00:08:38;20.40;99.90
26270;DHT22;15937;50.612;6.656;2022-08-01T00:12:41;20.50;99.90
26270;DHT22;15937;50.612;6.656;2022-08-01T00:16:43;20.50;99.90
26270;DHT22;15937;50.612;6.656;2022-08-01T00:20:45;20.20;99.90
26270;DHT22;15937;50.612;6.656;2022-08-01T00:24:47;20.50;99.90
26270;DHT22;15937;50.612;6.656;2022-08-01T00:28:49;20.30;99.90
26270;DHT22;15937;50.612;6.656;2022-08-01T00:32:50;20.30;99.90
26270;DHT22;15937;50.612;6.656;2022-08-01T00:36:52;20.20;99.90
26270;DHT22;15937;50.612;6.656;2022-08-01T00:40:54;20.30;99.90
26270;DHT22;15937;50.612;6.656;2022-08-01T00:44:56;20.20;99.90
26270;DHT22;15937;50.612;6.656;2022-08-01T00:48:59;20.10;99.90
26270;DHT22;15937;50.612;6.656;2022-08-01T00:53:01;20.20;99.90
26270;DHT22;15937;50.612;6.656;2022-08-01T00:57:04;20.10;99.90
26270;DHT22;15937;50.612;6.656;2022-08-01T01:01:10;20.10;99.90
26270;DHT22;15937;50.612;6.656;2022-08-01T01:05:13;20.20;99.90
26270;DHT22;15937;50.612;6.656;2022-08-01T01:17:55;20.20;99.90
26270;DHT22;15937;50.612;6.656;2022-08-01T01:22:16;20.20;99.90
26270;DHT22;15937;50.612;6.656;2022-08-01T01:30:28;20.00;99.90
26270;DHT22;15937;50.612;6.656;2022-08-01T01:34:34;20.00;99.90
26270;DHT22;15937;50.612;6.656;2022-08-01T01:38:40;19.90;99.90
26270;DHT22;15937;50.612;6.656;2022-08-01T01:42:44;19.80;99.90
26270;DHT22;15937;50.612;6.656;2022-08-01T01:46:47;19.80;99.90
26270;DHT22;15937;50.612;6.656;2022-08-01T01:50:51;19.90;99.90
26270;DHT22;15937;50.612;6.656;2022-08-01T01:54:54;20.00;99.90
26270;DHT22;15937;50.612;6.656;2022-08-01T01:59:00;20.00;99.90
26270;DHT22;15937;50.612;6.656;2022-08-01T02:03:05;20.00;99.90
26270;DHT22;15937;50.612;6.656;2022-08-01T02:07:12;19.70;99.90
26270;DHT22;15937;50.612;6.656;2022-08-01T02:11:14;19.60;99.90
26270;DHT22;15937;50.612;6.656;2022-08-01T02:15:24;19.40;99.90
26270;DHT22;15937;50.612;6.656;2022-08-01T02:19:26;19.60;99.90
26270;DHT22;15937;50.612;6.656;2022-08-01T02:23:32;19.80;99.90
26270;DHT22;15937;50.612;6.656;2022-08-01T02:27:42;19.70;99.90
26270;DHT22;15937;50.612;6.656;2022-08-01T02:31:46;19.70;99.90
26270;DHT22;15937;50.612;6.656;2022-08-01T02:35:58;19.70;99.90
26270;DHT22;15937;50.612;6.656;2022-08-01T02:40:21;19.70;99.90
26270;DHT22;15937;50.612;6.656;2022-08-01T02:44:28;19.60;99.90
26270;DHT22;15937;50.612;6.656;2022-08-01T02:48:33;19.60;99.90
26270;DHT22;15937;50.612;6.656;2022-08-01T02:52:37;19.60;99.90
26270;DHT22;15937;50.612;6.656;2022-08-01T02:56:41;19.70;99.90
26270;DHT22;15937;50.612;6.656;2022-08-01T03:00:44;19.80;99.90
26270;DHT22;15937;50.612;6.656;2022-08-01T03:04:50;19.70;99.90
26270;DHT22;15937;50.612;6.656;2022-08-01T03:08:58;19.70;99.90
26270;DHT22;15937;50.612;6.656;2022-08-01T03:13:02;19.60;99.90
26270;DHT22;15937;50.612;6.656;2022-08-01T03:17:06;19.50;99.90
26270;DHT22;15937;50.612;6.656;2022-08-01T03:21:10;19.70;99.90
26270;DHT22;15937;50.612;6.656;2022-08-01T03:25:14;19.70;99.90
26270;DHT22;15937;50.612;6.656;2022-08-01T03:29:21;19.40;99.90
26270;DHT22;15937;50.612;6.656;2022-08-01T03:33:23;19.50;99.90
26270;DHT22;15937;50.612;6.656;2022-08-01T03:37:37;19.50;99.90
26270;DHT22;15937;50.612;6.656;2022-08-01T03:42:08;19.40;99.90
26270;DHT22;15937;50.612;6.656;2022-08-01T03:46:19;19.40;99.90
26270;DHT22;15937;50.612;6.656;2022-08-01T03:50:25;19.50;99.90
26270;DHT22;15937;50.612;6.656;2022-08-01T03:54:35;19.60;99.90
26270;DHT22;15937;50.612;6.656;2022-08-01T03:58:41;19.70;99.90
26270;DHT22;15937;50.612;6.656;2022-08-01T04:02:48;19.60;99.90
26270;DHT22;15937;50.612;6.656;2022-08-01T04:06:50;19.70;99.90
26270;DHT22;15937;50.612;6.656;2022-08-01T04:10:55;19.60;99.90
26270;DHT22;15937;50.612;6.656;2022-08-01T04:14:57;19.70;99.90
26270;DHT22;15937;50.612;6.656;2022-08-01T04:18:59;19.70;99.90
26270;DHT22;15937;50.612;6.656;2022-08-01T04:23:00;19.60;99.90
26270;DHT22;15937;50.612;6.656;2022-08-01T04:27:05;19.70;99.90
26270;DHT22;15937;50.612;6.656;2022-08-01T04:31:12;19.60;99.90
26270;DHT22;15937;50.612;6.656;2022-08-01T04:35:17;19.60;99.90
26270;DHT22;15937;50.612;6.656;2022-08-01T04:39:42;19.70;99.90
26270;DHT22;15937;50.612;6.656;2022-08-01T04:43:52;19.50;99.90
26270;DHT22;15937;50.612;6.656;2022-08-01T04:47:57;19.60;99.90
26270;DHT22;15937;50.612;6.656;2022-08-01T04:51:59;19.50;99.90
26270;DHT22;15937;50.612;6.656;2022-08-01T04:56:01;19.40;99.90
26270;DHT22;15937;50.612;6.656;2022-08-01T05:00:04;19.50;99.90
26270;DHT22;15937;50.612;6.656;2022-08-01T05:04:06;19.70;99.90
26270;DHT22;15937;50.612;6.656;2022-08-01T05:08:08;19.70;99.90
26270;DHT22;15937;50.612;6.656;2022-08-01T05:12:10;19.80;99.90
26270;DHT22;15937;50.612;6.656;2022-08-01T05:16:12;19.80;99.90
26270;DHT22;15937;50.612;6.656;2022-08-01T05:20:14;19.80;99.90
26270;DHT22;15937;50.612;6.656;2022-08-01T05:24:16;19.90;99.90
26270;DHT22;15937;50.612;6.656;2022-08-01T05:28:18;19.80;99.90
26270;DHT22;15937;50.612;6.656;2022-08-01T05:32:20;19.90;99.90
26270;DHT22;15937;50.612;6.656;2022-08-01T05:36:22;19.80;99.90
26270;DHT22;15937;50.612;6.656;2022-08-01T05:40:26;19.70;99.90
26270;DHT22;15937;50.612;6.656;2022-08-01T05:44:28;19.70;99.90
26270;DHT22;15937;50.612;6.656;2022-08-01T05:48:30;19.60;99.90
26270;DHT22;15937;50.612;6.656;2022-08-01T05:52:32;19.70;99.90
26270;DHT22;15937;50.612;6.656;2022-08-01T05:56:34;19.60;99.90
26270;DHT22;15937;50.612;6.656;2022-08-01T06:00:36;19.60;99.90
26270;DHT22;15937;50.612;6.656;2022-08-01T06:04:41;19.50;99.90
26270;DHT22;15937;50.612;6.656;2022-08-01T06:08:46;19.70;99.90
26270;DHT22;15937;50.612;6.656;2022-08-01T06:12:52;19.60;99.90
26270;DHT22;15937;50.612;6.656;2022-08-01T06:16:54;19.80;99.90
26270;DHT22;15937;50.612;6.656;2022-08-01T06:20:57;19.90;99.90
26270;DHT22;15937;50.612;6.656;2022-08-01T06:24:59;19.90;99.90
26270;DHT22;15937;50.612;6.656;2022-08-01T06:29:01;20.20;99.90
26270;DHT22;15937;50.612;6.656;2022-08-01T06:33:03;20.00;99.90
26270;DHT22;15937;50.612;6.656;2022-08-01T06:37:07;20.00;99.90
26270;DHT22;15937;50.612;6.656;2022-08-01T06:41:09;19.90;99.90
26270;DHT22;15937;50.612;6.656;2022-08-01T06:45:12;20.10;99.90
26270;DHT22;15937;50.612;6.656;2022-08-01T06:49:15;20.20;99.90
26270;DHT22;15937;50.612;6.656;2022-08-01T06:53:17;20.10;99.90
26270;DHT22;15937;50.612;6.656;2022-08-01T06:57:19;20.20;99.90
26270;DHT22;15937;50.612;6.656;2022-08-01T07:01:21;20.20;99.90
26270;DHT22;15937;50.612;6.656;2022-08-01T07:05:24;20.10;99.90
26270;DHT22;15937;50.612;6.656;2022-08-01T07:09:26;20.30;99.90
26270;DHT22;15937;50.612;6.656;2022-08-01T07:13:37;20.20;99.90
26270;DHT22;15937;50.612;6.656;2022-08-01T07:17:44;20.20;99.90
26270;DHT22;15937;50.612;6.656;2022-08-01T07:21:46;20.10;99.90
26270;DHT22;15937;50.612;6.656;2022-08-01T07:25:50;20.00;99.90
26270;DHT22;15937;50.612;6.656;2022-08-01T07:29:58;20.10;99.90
26270;DHT22;15937;50.612;6.656;2022-08-01T07:34:01;20.10;99.90
26270;DHT22;15937;50.612;6.656;2022-08-01T07:38:06;20.30;99.90
26270;DHT22;15937;50.612;6.656;2022-08-01T07:42:13;20.10;99.90
26270;DHT22;15937;50.612;6.656;2022-08-01T07:46:16;20.20;99.90
26270;DHT22;15937;50.612;6.656;2022-08-01T07:50:19;20.20;99.90
26270;DHT22;15937;50.612;6.656;2022-08-01T07:54:21;20.30;99.90
26270;DHT22;15937;50.612;6.656;2022-08-01T07:58:34;20.40;99.90
26270;DHT22;15937;50.612;6.656;2022-08-01T08:02:37;20.30;99.90
26270;DHT22;15937;50.612;6.656;2022-08-01T08:06:38;20.40;99.90
26270;DHT22;15937;50.612;6.656;2022-08-01T08:10:40;20.40;99.90
26270;DHT22;15937;50.612;6.656;2022-08-01T08:14:42;20.30;99.90
26270;DHT22;15937;50.612;6.656;2022-08-01T08:18:44;20.40;99.90
26270;DHT22;15937;50.612;6.656;2022-08-01T08:22:46;20.70;99.90
26270;DHT22;15937;50.612;6.656;2022-08-01T08:26:50;20.90;99.90
26270;DHT22;15937;50.612;6.656;2022-08-01T08:30:52;21.00;99.90
26270;DHT22;15937;50.612;6.656;2022-08-01T08:34:59;21.20;99.90
26270;DHT22;15937;50.612;6.656;2022-08-01T08:39:02;21.20;99.90
26270;DHT22;15937;50.612;6.656;2022-08-01T08:43:05;21.00;99.90
26270;DHT22;15937;50.612;6.656;2022-08-01T08:47:08;21.00;99.90
26270;DHT22;15937;50.612;6.656;2022-08-01T08:51:16;21.00;99.90
26270;DHT22;15937;50.612;6.656;2022-08-01T08:55:19;21.30;99.90
26270;DHT22;15937;50.612;6.656;2022-08-01T08:59:23;21.20;99.90
26270;DHT22;15937;50.612;6.656;2022-08-01T09:03:27;21.10;99.90
26270;DHT22;15937;50.612;6.656;2022-08-01T09:07:29;21.20;99.90
26270;DHT22;15937;50.612;6.656;2022-08-01T09:11:31;21.40;99.90
26270;DHT22;15937;50.612;6.656;2022-08-01T09:15:48;21.60;99.90
26270;DHT22;15937;50.612;6.656;2022-08-01T09:19:54;21.60;99.90
26270;DHT22;15937;50.612;6.656;2022-08-01T09:23:59;21.80;99.90
26270;DHT22;15937;50.612;6.656;2022-08-01T09:28:05;21.90;99.90
26270;DHT22;15937;50.612;6.656;2022-08-01T09:32:07;22.00;99.90
26270;DHT22;15937;50.612;6.656;2022-08-01T09:36:17;21.80;99.90
26270;DHT22;15937;50.612;6.656;2022-08-01T09:40:19;21.60;99.90
26270;DHT22;15937;50.612;6.656;2022-08-01T09:44:42;21.90;99.90
26270;DHT22;15937;50.612;6.656;2022-08-01T09:49:05;22.40;99.90
26270;DHT22;15937;50.612;6.656;2022-08-01T09:53:12;22.90;99.90
26270;DHT22;15937;50.612;6.656;2022-08-01T09:57:31;23.30;99.90
26270;DHT22;15937;50.612;6.656;2022-08-01T10:05:46;22.20;99.90
26270;DHT22;15937;50.612;6.656;2022-08-01T10:09:51;22.10;99.90
26270;DHT22;15937;50.612;6.656;2022-08-01T10:13:53;22.30;99.90
26270;DHT22;15937;50.612;6.656;2022-08-01T10:17:58;22.30;99.90
26270;DHT22;15937;50.612;6.656;2022-08-01T10:22:01;22.10;99.90
26270;DHT22;15937;50.612;6.656;2022-08-01T10:26:07;22.20;99.90
26270;DHT22;15937;50.612;6.656;2022-08-01T10:30:10;22.10;99.90
26270;DHT22;15937;50.612;6.656;2022-08-01T10:34:23;21.90;99.90
26270;DHT22;15937;50.612;6.656;2022-08-01T10:38:30;22.00;99.90
26270;DHT22;15937;50.612;6.656;2022-08-01T10:42:33;22.30;99.90
26270;DHT22;15937;50.612;6.656;2022-08-01T10:46:38;22.00;99.90
26270;DHT22;15937;50.612;6.656;2022-08-01T10:50:49;21.90;99.90
26270;DHT22;15937;50.612;6.656;2022-08-01T10:55:07;21.70;99.90
26270;DHT22;15937;50.612;6.656;2022-08-01T10:59:30;21.80;99.90
26270;DHT22;15937;50.612;6.656;2022-08-01T11:04:12;21.90;99.90
26270;DHT22;15937;50.612;6.656;2022-08-01T11:08:22;21.90;99.90
26270;DHT22;15937;50.612;6.656;2022-08-01T11:12:38;22.20;99.90
26270;DHT22;15937;50.612;6.656;2022-08-01T11:16:40;22.40;99.90
26270;DHT22;15937;50.612;6.656;2022-08-01T11:20:55;22.40;99.90
26270;DHT22;15937;50.612;6.656;2022-08-01T11:25:19;22.70;99.90
26270;DHT22;15937;50.612;6.656;2022-08-01T11:29:40;22.50;99.90
26270;DHT22;15937;50.612;6.656;2022-08-01T11:33:48;23.40;99.90
26270;DHT22;15937;50.612;6.656;2022-08-01T11:37:52;22.10;99.90
26270;DHT22;15937;50.612;6.656;2022-08-01T11:42:19;21.50;99.90
26270;DHT22;15937;50.612;6.656;2022-08-01T11:50:58;21.10;99.90
26270;DHT22;15937;50.612;6.656;2022-08-01T11:55:10;21.30;99.90
26270;DHT22;15937;50.612;6.656;2022-08-01T11:59:27;21.10;99.90
26270;DHT22;15937;50.612;6.656;2022-08-01T12:04:09;21.40;99.90
26270;DHT22;15937;50.612;6.656;2022-08-01T12:18:50;21.60;99.90
26270;DHT22;15937;50.612;6.656;2022-08-01T12:28:15;22.20;99.90
26270;DHT22;15937;50.612;6.656;2022-08-01T12:32:54;22.30;99.90
26270;DHT22;15937;50.612;6.656;2022-08-01T12:47:51;21.90;99.90
26270;DHT22;15937;50.612;6.656;2022-08-01T12:51:54;22.00;99.90
26270;DHT22;15937;50.612;6.656;2022-08-01T13:01:06;22.30;99.90
26270;DHT22;15937;50.612;6.656;2022-08-01T13:05:09;22.50;99.90
26270;DHT22;15937;50.612;6.656;2022-08-01T13:09:12;22.50;99.90
26270;DHT22;15937;50.612;6.656;2022-08-01T13:13:18;22.80;99.90
26270;DHT22;15937;50.612;6.656;2022-08-01T13:17:33;23.10;99.90
26270;DHT22;15937;50.612;6.656;2022-08-01T13:21:37;23.10;99.90
26270;DHT22;15937;50.612;6.656;2022-08-01T13:25:55;23.00;99.90
26270;DHT22;15937;50.612;6.656;2022-08-01T13:30:19;22.70;99.90
26270;DHT22;15937;50.612;6.656;2022-08-01T13:34:34;22.80;99.90
26270;DHT22;15937;50.612;6.656;2022-08-01T13:38:37;22.70;99.90
26270;DHT22;15937;50.612;6.656;2022-08-01T13:42:57;22.60;99.90
26270;DHT22;15937;50.612;6.656;2022-08-01T13:47:03;22.60;99.90
26270;DHT22;15937;50.612;6.656;2022-08-01T13:51:22;22.50;99.90
26270;DHT22;15937;50.612;6.656;2022-08-01T13:55:24;22.40;99.90
26270;DHT22;15937;50.612;6.656;2022-08-01T13:59:26;22.40;99.90
26270;DHT22;15937;50.612;6.656;2022-08-01T14:03:28;22.40;99.90
26270;DHT22;15937;50.612;6.656;2022-08-01T14:07:35;22.40;99.90
26270;DHT22;15937;50.612;6.656;2022-08-01T14:11:39;22.60;99.90
26270;DHT22;15937;50.612;6.656;2022-08-01T14:15:48;22.60;99.90
26270;DHT22;15937;50.612;6.656;2022-08-01T14:19:55;22.60;99.90
26270;DHT22;15937;50.612;6.656;2022-08-01T14:24:01;22.80;99.90
26270;DHT22;15937;50.612;6.656;2022-08-01T14:28:03;23.00;99.90
26270;DHT22;15937;50.612;6.656;2022-08-01T14:32:09;22.80;99.90
26270;DHT22;15937;50.612;6.656;2022-08-01T14:36:19;22.90;99.90
26270;DHT22;15937;50.612;6.656;2022-08-01T14:40:33;23.00;99.90
26270;DHT22;15937;50.612;6.656;2022-08-01T14:44:37;23.00;99.90
26270;DHT22;15937;50.612;6.656;2022-08-01T14:48:51;22.90;99.90
26270;DHT22;15937;50.612;6.656;2022-08-01T14:52:54;22.80;99.90
26270;DHT22;15937;50.612;6.656;2022-08-01T15:02:00;23.00;99.90
26270;DHT22;15937;50.612;6.656;2022-08-01T15:06:08;23.20;99.90
26270;DHT22;15937;50.612;6.656;2022-08-01T15:10:14;23.40;99.90
26270;DHT22;15937;50.612;6.656;2022-08-01T15:14:32;23.60;99.90
26270;DHT22;15937;50.612;6.656;2022-08-01T15:19:07;23.60;99.90
26270;DHT22;15937;50.612;6.656;2022-08-01T15:23:09;23.80;99.90
26270;DHT22;15937;50.612;6.656;2022-08-01T15:27:11;23.50;99.90
26270;DHT22;15937;50.612;6.656;2022-08-01T15:31:27;23.50;99.90
26270;DHT22;15937;50.612;6.656;2022-08-01T15:35:33;23.40;99.90
26270;DHT22;15937;50.612;6.656;2022-08-01T15:39:36;23.70;99.90
26270;DHT22;15937;50.612;6.656;2022-08-01T15:43:45;23.70;99.90
26270;DHT22;15937;50.612;6.656;2022-08-01T15:47:59;23.70;99.90
26270;DHT22;15937;50.612;6.656;2022-08-01T15:52:02;23.50;99.90
26270;DHT22;15937;50.612;6.656;2022-08-01T15:56:06;23.50;99.90
26270;DHT22;15937;50.612;6.656;2022-08-01T16:00:09;23.60;99.90
26270;DHT22;15937;50.612;6.656;2022-08-01T16:04:16;23.60;99.90
26270;DHT22;15937;50.612;6.656;2022-08-01T16:08:23;23.70;99.90
26270;DHT22;15937;50.612;6.656;2022-08-01T16:12:29;23.70;99.90
26270;DHT22;15937;50.612;6.656;2022-08-01T16:16:31;23.70;99.90
26270;DHT22;15937;50.612;6.656;2022-08-01T16:20:38;23.50;99.90
26270;DHT22;15937;50.612;6.656;2022-08-01T16:25:04;23.40;99.90
26270;DHT22;15937;50.612;6.656;2022-08-01T16:29:17;23.30;99.90
26270;DHT22;15937;50.612;6.656;2022-08-01T16:33:25;23.30;99.90
26270;DHT22;15937;50.612;6.656;2022-08-01T16:37:47;23.10;99.90
26270;DHT22;15937;50.612;6.656;2022-08-01T16:41:53;23.10;99.90
26270;DHT22;15937;50.612;6.656;2022-08-01T16:45:56;23.10;99.90
26270;DHT22;15937;50.612;6.656;2022-08-01T16:50:03;23.20;99.90
26270;DHT22;15937;50.612;6.656;2022-08-01T16:58:59;23.30;99.90
26270;DHT22;15937;50.612;6.656;2022-08-01T17:03:01;23.30;99.90
26270;DHT22;15937;50.612;6.656;2022-08-01T17:07:18;23.30;99.90
26270;DHT22;15937;50.612;6.656;2022-08-01T17:11:20;23.40;99.90
26270;DHT22;15937;50.612;6.656;2022-08-01T17:15:23;23.40;99.90
26270;DHT22;15937;50.612;6.656;2022-08-01T17:19:29;23.40;99.90
26270;DHT22;15937;50.612;6.656;2022-08-01T17:23:43;23.10;99.90
26270;DHT22;15937;50.612;6.656;2022-08-01T17:27:52;22.90;99.90
26270;DHT22;15937;50.612;6.656;2022-08-01T17:32:03;22.80;99.90
26270;DHT22;15937;50.612;6.656;2022-08-01T17:36:14;22.80;99.90
26270;DHT22;15937;50.612;6.656;2022-08-01T17:40:23;22.90;99.90
26270;DHT22;15937;50.612;6.656;2022-08-01T17:44:40;23.00;99.90
26270;DHT22;15937;50.612;6.656;2022-08-01T17:48:52;22.80;99.90
26270;DHT22;15937;50.612;6.656;2022-08-01T17:52:57;22.80;99.90
26270;DHT22;15937;50.612;6.656;2022-08-01T17:57:00;22.80;99.90
26270;DHT22;15937;50.612;6.656;2022-08-01T18:01:09;23.20;99.90
26270;DHT22;15937;50.612;6.656;2022-08-01T18:05:11;22.90;99.90
26270;DHT22;15937;50.612;6.656;2022-08-01T18:09:23;22.80;99.90
26270;DHT22;15937;50.612;6.656;2022-08-01T18:13:41;22.70;99.90
26270;DHT22;15937;50.612;6.656;2022-08-01T18:17:49;22.50;99.90
26270;DHT22;15937;50.612;6.656;2022-08-01T18:22:00;22.60;99.90
26270;DHT22;15937;50.612;6.656;2022-08-01T18:26:06;22.50;99.90
26270;DHT22;15937;50.612;6.656;2022-08-01T18:30:09;22.40;99.90
26270;DHT22;15937;50.612;6.656;2022-08-01T18:34:16;22.30;99.90
26270;DHT22;15937;50.612;6.656;2022-08-01T18:38:25;22.20;99.90
26270;DHT22;15937;50.612;6.656;2022-08-01T18:42:50;22.20;99.90
26270;DHT22;15937;50.612;6.656;2022-08-01T18:46:55;22.20;99.90
26270;DHT22;15937;50.612;6.656;2022-08-01T18:51:00;22.20;99.90
26270;DHT22;15937;50.612;6.656;2022-08-01T18:55:02;22.00;99.90
26270;DHT22;15937;50.612;6.656;2022-08-01T18:59:07;21.80;99.90
26270;DHT22;15937;50.612;6.656;2022-08-01T19:03:13;21.80;99.90
26270;DHT22;15937;50.612;6.656;2022-08-01T19:07:28;21.80;99.90
26270;DHT22;15937;50.612;6.656;2022-08-01T19:12:03;21.60;99.90
26270;DHT22;15937;50.612;6.656;2022-08-01T19:16:06;21.40;99.90
26270;DHT22;15937;50.612;6.656;2022-08-01T19:20:17;21.40;99.90
26270;DHT22;15937;50.612;6.656;2022-08-01T19:24:19;21.30;99.90
26270;DHT22;15937;50.612;6.656;2022-08-01T19:28:25;21.20;99.90
26270;DHT22;15937;50.612;6.656;2022-08-01T19:32:33;21.20;99.90
26270;DHT22;15937;50.612;6.656;2022-08-01T19:36:38;21.20;99.90
26270;DHT22;15937;50.612;6.656;2022-08-01T19:40:41;21.00;99.90
26270;DHT22;15937;50.612;6.656;2022-08-01T19:44:44;20.90;99.90
26270;DHT22;15937;50.612;6.656;2022-08-01T19:48:48;20.90;99.90
26270;DHT22;15937;50.612;6.656;2022-08-01T19:53:06;21.00;99.90
26270;DHT22;15937;50.612;6.656;2022-08-01T19:57:17;20.90;99.90
26270;DHT22;15937;50.612;6.656;2022-08-01T20:01:19;20.80;99.90
26270;DHT22;15937;50.612;6.656;2022-08-01T20:05:24;20.80;99.90
26270;DHT22;15937;50.612;6.656;2022-08-01T20:09:27;20.80;99.90
26270;DHT22;15937;50.612;6.656;2022-08-01T20:13:30;20.70;99.90
26270;DHT22;15937;50.612;6.656;2022-08-01T20:17:42;20.70;99.90
26270;DHT22;15937;50.612;6.656;2022-08-01T20:22:09;20.60;99.90
26270;DHT22;15937;50.612;6.656;2022-08-01T20:26:15;20.50;99.90
26270;DHT22;15937;50.612;6.656;2022-08-01T20:30:19;20.40;99.90
26270;DHT22;15937;50.612;6.656;2022-08-01T20:34:22;20.40;99.90
26270;DHT22;15937;50.612;6.656;2022-08-01T20:38:25;20.30;99.90
26270;DHT22;15937;50.612;6.656;2022-08-01T20:42:35;20.20;99.90
26270;DHT22;15937;50.612;6.656;2022-08-01T20:46:37;20.20;99.90
26270;DHT22;15937;50.612;6.656;2022-08-01T20:50:44;19.90;99.90
26270;DHT22;15937;50.612;6.656;2022-08-01T20:55:04;19.90;99.90
26270;DHT22;15937;50.612;6.656;2022-08-01T21:08:23;19.80;99.90
26270;DHT22;15937;50.612;6.656;2022-08-01T21:16:46;19.20;99.90
26270;DHT22;15937;50.612;6.656;2022-08-01T21:21:01;19.30;99.90
26270;DHT22;15937;50.612;6.656;2022-08-01T21:25:06;19.30;99.90
26270;DHT22;15937;50.612;6.656;2022-08-01T21:29:09;19.50;99.90
26270;DHT22;15937;50.612;6.656;2022-08-01T21:33:15;19.30;99.90
26270;DHT22;15937;50.612;6.656;2022-08-01T21:37:17;18.50;99.90
26270;DHT22;15937;50.612;6.656;2022-08-01T21:41:19;18.40;99.90
26270;DHT22;15937;50.612;6.656;2022-08-01T21:45:42;18.50;99.90
26270;DHT22;15937;50.612;6.656;2022-08-01T21:50:03;18.60;99.90
26270;DHT22;15937;50.612;6.656;2022-08-01T21:54:33;18.50;99.90
26270;DHT22;15937;50.612;6.656;2022-08-01T21:58:51;18.30;99.90
26270;DHT22;15937;50.612;6.656;2022-08-01T22:07:21;18.30;99.90
26270;DHT22;15937;50.612;6.656;2022-08-01T22:11:27;17.80;99.90
26270;DHT22;15937;50.612;6.656;2022-08-01T22:15:30;17.80;99.90
26270;DHT22;15937;50.612;6.656;2022-08-01T22:19:47;17.80;99.90
26270;DHT22;15937;50.612;6.656;2022-08-01T22:23:54;17.60;99.90
26270;DHT22;15937;50.612;6.656;2022-08-01T22:27:56;17.70;99.90
26270;DHT22;15937;50.612;6.656;2022-08-01T22:32:10;17.60;99.90
26270;DHT22;15937;50.612;6.656;2022-08-01T22:36:15;17.40;99.90
26270;DHT22;15937;50.612;6.656;2022-08-01T22:40:17;17.40;99.90
26270;DHT22;15937;50.612;6.656;2022-08-01T22:44:25;17.20;99.90
26270;DHT22;15937;50.612;6.656;2022-08-01T22:48:51;17.10;99.90
26270;DHT22;15937;50.612;6.656;2022-08-01T22:53:23;17.20;99.90
26270;DHT22;15937;50.612;6.656;2022-08-01T22:57:42;17.00;99.90
26270;DHT22;15937;50.612;6.656;2022-08-01T23:01:51;17.00;99.90
26270;DHT22;15937;50.612;6.656;2022-08-01T23:10:04;17.10;99.90
26270;DHT22;15937;50.612;6.656;2022-08-01T23:14:06;16.90;99.90
26270;DHT22;15937;50.612;6.656;2022-08-01T23:18:09;17.00;99.90
26270;DHT22;15937;50.612;6.656;2022-08-01T23:22:12;16.90;99.90
26270;DHT22;15937;50.612;6.656;2022-08-01T23:26:15;17.00;99.90
26270;DHT22;15937;50.612;6.656;2022-08-01T23:30:17;17.00;99.90
26270;DHT22;15937;50.612;6.656;2022-08-01T23:34:19;16.90;99.90
26270;DHT22;15937;50.612;6.656;2022-08-01T23:38:20;16.80;99.90
26270;DHT22;15937;50.612;6.656;2022-08-01T23:42:22;16.70;99.90
26270;DHT22;15937;50.612;6.656;2022-08-01T23:46:24;16.70;99.90
26270;DHT22;15937;50.612;6.656;2022-08-01T23:50:26;16.60;99.90
26270;DHT22;15937;50.612;6.656;2022-08-01T23:54:29;16.50;99.90
26270;DHT22;15937;50.612;6.656;2022-08-01T23:58:32;16.50;99.90
